Lulu Pass Weather Station

This weather station provides temperature, relative humidity (RH), wind speed, gust or max wind speed, and wind direction at 10014ft near Lulu Pass at the head of Fisher Creek. This data can be used with temperature and precipitation data from the Fisher Creek SNOTEL site.

This weather station was purchased by the Friends of the Avalanche Center.

If the data has not been updated recently you can view it directly on datagarrison.com

Elevation
10014ft
Jump to table bottom
Date Time Temperature
deg F
RH, % Wind Speed Wind Gust Wind Direction
12/14/19 11:00 7.5 93 14 19 NW - 323
12/14/19 10:00 8.3 93 9 12 NW - 333
12/14/19 09:00 7.4 93 4 6 NW - 327
12/14/19 08:00 6.4 93 4 8 N - 4
12/14/19 07:00 6.2 92 6 9 N - 341
12/14/19 06:00 4.4 93 1 3 W - 265
12/14/19 05:00 7.1 93 5 10 N - 338
12/14/19 04:00 7.4 93 4 9 NW - 319
12/14/19 03:00 6.4 93 3 6 NW - 296
12/14/19 02:00 7.6 94 2 5 W - 284
12/14/19 01:00 8.1 94 4 7 W - 288
12/14/19 00:00 8.4 94 9 14 NW - 314
12/13/19 23:00 8.8 94 8 13 NW - 307
12/13/19 22:00 8.4 94 3 7 NW - 305
12/13/19 21:00 8.2 94 3 6 W - 282
12/13/19 20:00 8.4 94 5 12 SW - 240
12/13/19 19:00 8.6 94 5 14 SW - 241
12/13/19 18:00 8.9 94 7 14 SW - 236
12/13/19 17:00 8.7 94 8 20 SW - 233
12/13/19 16:00 9.6 94 10 17 SW - 227
12/13/19 15:00 10.5 95 8 19 W - 251
12/13/19 14:00 12.2 95 9 17 W - 250
12/13/19 13:00 13.4 95 11 24 W - 248
12/13/19 12:00 13.9 95 11 24 W - 271
12/13/19 11:00 13.8 95 10 26 W - 279
12/13/19 10:00 13.1 95 9 24 W - 267
12/13/19 09:00 12.1 95 10 24 SW - 243
12/13/19 08:00 11.2 95 12 27 SW - 236
12/13/19 07:00 11.2 95 9 20 W - 258
12/13/19 06:00 11.5 95 11 23 W - 268
12/13/19 05:00 12.0 95 14 24 NW - 295
12/13/19 04:00 12.7 95 17 33 W - 292
12/13/19 03:00 13.6 96 17 45 W - 284
12/13/19 02:00 14.5 96 16 35 W - 286
12/13/19 01:00 15.2 96 17 34 W - 278
12/13/19 00:00 15.9 96 14 35 W - 274
12/12/19 23:00 15.3 96 8 20 W - 278
12/12/19 22:00 13.7 95 9 19 SW - 233
12/12/19 21:00 13.3 95 9 23 SW - 233
12/12/19 20:00 12.8 95 10 23 SW - 229
12/12/19 19:00 11.9 95 7 18 W - 270
12/12/19 18:00 13.5 96 10 21 W - 275
12/12/19 17:00 14.1 96 13 30 W - 285
12/12/19 16:00 14.9 96 21 40 NW - 293
12/12/19 15:00 16.3 97 21 45 NW - 295
12/12/19 14:00 17.4 97 17 35 W - 286
12/12/19 13:00 17.9 97 16 36 W - 284
12/12/19 12:00 18.0 97 14 27 W - 271
12/12/19 11:00 18.4 97 12 27 W - 257
12/12/19 10:00 18.4 97 10 22 W - 270